X  Close Metar Aviation Weather Data     LDPL Pula Airport
Temperature
48°F Temperature
46°F Dewpoint
94% Humidity



Wind
0 MPH
0 KM/H
0 M/S
0 KTS



Calm
N
Current Conditions

Mostly Cloudy Mostly Cloudy
Pressure 1012.92 (hPa) - 29.91 (inHg)
Visibility 6.2 (mile) - 10 (km)
Airport
Airport-code LDPL

Location: Pula Airport
Distance: 39 (mi)

Metar:
LDPL 070000Z 00000KT 9999 BKN015 OVC027 09/08 Q1013

Time: 07-12-2022 01:00 CET